Izumo Princess — SXMB — position and weather

sailwx.info

Track history (hours):
 
Tides and Currents Weather Stations Pressure Air Temp Water Temp Dewpoint Dewpoint Depression Visibility Wind Speed Wind Dir Waves Ship Positions

Izumo Princess

Last reported at 2015-Apr-28 17:28 UTC. Time now 2015-Apr-28 19:47 UTC.
Position N 32°08' E 028°05'.

Length 229 m; draft 8.2 m.

Type: Tanker. MMSI: 240611000.

Date/timePositionNaut miles runAvg speedWind from/ knotsBaromVisibWave heightAir tempDewpointWater temp
2015-Apr-28 17:28N 32°08' E 028°05'2411.0
2015-Apr-28 15:15N 32°22' E 027°42'21811.6
2015-Apr-27 20:26N 34°35' E 024°15'4811.3
2015-Apr-27 16:11N 35°09' E 023°33'711.0
2015-Apr-27 15:33N 35°14' E 023°27'1511.6
2015-Apr-27 14:15N 35°25' E 023°14'811.8
2015-Apr-27 13:33N 35°30' E 023°07'1211.6
2015-Apr-27 12:32N 35°38' E 022°56'14 6.5
2015-Apr-27 10:17N 35°47' E 022°42'710.2
2015-Apr-27 09:33N 35°53' E 022°36'17310.1
2015-Apr-26 16:29N 38°06' E 020°19'1010.3
2015-Apr-26 15:33N 38°15' E 020°13'1110.7
2015-Apr-26 14:33N 38°24' E 020°06'1212.4
2015-Apr-26 13:33N 38°35' E 019°60'1512.3
2015-Apr-26 12:19N 38°49' E 019°52'912.1
2015-Apr-26 11:33N 38°58' E 019°47'1211.7
2015-Apr-26 10:33N 39°08' E 019°41'1211.8
2015-Apr-26 09:33N 39°19' E 019°34'1212.2
2015-Apr-26 08:33N 39°30' E 019°28'1212.4
2015-Apr-26 07:33N 39°41' E 019°21'1211.9
2015-Apr-26 06:33N 39°52' E 019°14'1212.0
2015-Apr-26 05:33N 40°03' E 019°09'1212.1
2015-Apr-26 04:33N 40°15' E 019°03'1212.0
2015-Apr-26 03:32N 40°26' E 018°57'  
Track history (hours):
 
Tides and Currents Weather Stations Pressure Air Temp Water Temp Dewpoint Dewpoint Depression Visibility Wind Speed Wind Dir Waves Ship Positions

Izumo Princess

Last reported at 2015-Apr-28 17:28 UTC. Time now 2015-Apr-28 19:47 UTC.
Position N 32°08' E 028°05'.

Length 229 m; draft 8.2 m.

Type: Tanker. MMSI: 240611000.

Date/timePositionNaut miles runAvg speedWind from/ knotsBaromVisibWave heightAir tempDewpointWater temp
2015-Apr-28 17:28N 32°08' E 028°05'2411.0
2015-Apr-28 15:15N 32°22' E 027°42'21811.6
2015-Apr-27 20:26N 34°35' E 024°15'4811.3
2015-Apr-27 16:11N 35°09' E 023°33'711.0
2015-Apr-27 15:33N 35°14' E 023°27'1511.6
2015-Apr-27 14:15N 35°25' E 023°14'811.8
2015-Apr-27 13:33N 35°30' E 023°07'1211.6
2015-Apr-27 12:32N 35°38' E 022°56'14 6.5
2015-Apr-27 10:17N 35°47' E 022°42'710.2
2015-Apr-27 09:33N 35°53' E 022°36'17310.1
2015-Apr-26 16:29N 38°06' E 020°19'1010.3
2015-Apr-26 15:33N 38°15' E 020°13'1110.7
2015-Apr-26 14:33N 38°24' E 020°06'1212.4
2015-Apr-26 13:33N 38°35' E 019°60'1512.3
2015-Apr-26 12:19N 38°49' E 019°52'912.1
2015-Apr-26 11:33N 38°58' E 019°47'1211.7
2015-Apr-26 10:33N 39°08' E 019°41'1211.8
2015-Apr-26 09:33N 39°19' E 019°34'1212.2
2015-Apr-26 08:33N 39°30' E 019°28'1212.4
2015-Apr-26 07:33N 39°41' E 019°21'1211.9
2015-Apr-26 06:33N 39°52' E 019°14'1212.0
2015-Apr-26 05:33N 40°03' E 019°09'1212.1
2015-Apr-26 04:33N 40°15' E 019°03'1212.0
2015-Apr-26 03:32N 40°26' E 018°57'  

Dump ship's entire track history